Time;durP1;ratioP1;P1;durP2;ratioP2;P2;SDS_P1;SDS_P2;PMS_P1;PMS_P2;Temp;Humidity;BMP_temperature;BMP_pressure;BME280_temperature;BME280_humidity;BME280_pressure;Samples;Min_cycle;Max_cycle;Signal;HPM_P1;HPM_P2
2022/04/03 00:01:26;;;;;;;0.00;0.00;;;8.90;99.90;;;;;;5035400;28;20025;-72
2022/04/03 00:03:52;;;;;;;0.00;0.00;;;8.80;99.90;;;;;;5053857;28;20074;-72
2022/04/03 00:06:19;;;;;;;0.00;0.00;;;8.70;99.90;;;;;;5053384;28;20053;-71
2022/04/03 00:08:45;;;;;;;0.00;0.00;;;8.70;99.90;;;;;;5052420;28;20029;-71
2022/04/03 00:11:11;;;;;;;0.25;0.20;;;8.70;99.90;;;;;;5053761;28;20029;-72
2022/04/03 00:13:37;;;;;;;76.47;23.00;;;8.80;99.90;;;;;;5053730;28;20112;-73
2022/04/03 00:16:07;;;;;;;0.00;0.00;;;8.80;99.90;;;;;;5089265;28;20060;-72
2022/04/03 00:18:33;;;;;;;0.00;0.00;;;8.70;99.90;;;;;;5075626;28;20024;-72
2022/04/03 00:21:00;;;;;;;1.48;1.45;;;8.70;99.90;;;;;;5094043;28;20031;-73
2022/04/03 00:23:26;;;;;;;0.00;0.00;;;8.70;99.90;;;;;;5093501;28;20051;-73
2022/04/03 00:25:53;;;;;;;0.00;0.00;;;8.60;99.90;;;;;;5075522;28;20357;-72
2022/04/03 00:28:23;;;;;;;1.95;1.27;;;8.50;99.90;;;;;;5059199;28;20037;-72
2022/04/03 00:30:49;;;;;;;0.00;0.00;;;8.50;99.90;;;;;;5058636;28;20028;-72
2022/04/03 00:33:15;;;;;;;0.00;0.00;;;8.50;99.90;;;;;;5054330;28;20021;-71
2022/04/03 00:35:41;;;;;;;0.00;0.00;;;8.50;99.90;;;;;;5075448;28;20108;-71
2022/04/03 00:38:08;;;;;;;0.00;0.00;;;8.50;99.90;;;;;;5078547;28;20055;-71
2022/04/03 00:40:35;;;;;;;0.00;0.00;;;8.40;99.90;;;;;;5058151;28;20063;-71
2022/04/03 00:43:01;;;;;;;0.00;0.00;;;8.40;99.90;;;;;;5075953;28;20098;-71
2022/04/03 00:45:27;;;;;;;0.00;0.00;;;8.50;99.90;;;;;;5078055;28;20371;-71
2022/04/03 00:47:56;;;;;;;0.00;0.00;;;8.50;99.90;;;;;;5074896;28;20700;-71
2022/04/03 00:50:23;;;;;;;0.00;0.00;;;8.40;99.90;;;;;;5093336;28;20066;-72
2022/04/03 00:52:49;;;;;;;0.00;0.00;;;8.40;99.90;;;;;;5074784;28;20093;-71
2022/04/03 00:55:15;;;;;;;0.00;0.00;;;8.40;99.90;;;;;;5074538;28;20059;-72
2022/04/03 00:57:45;;;;;;;0.13;0.13;;;8.60;99.90;;;;;;5093176;28;20020;-71
2022/04/03 01:00:13;;;;;;;0.28;0.28;;;8.60;99.90;;;;;;5092709;28;20023;-72
2022/04/03 01:02:45;;;;;;;0.00;0.00;;;8.80;99.90;;;;;;5068047;28;20028;-72
2022/04/03 01:05:15;;;;;;;0.00;0.00;;;8.90;99.90;;;;;;5067298;28;20056;-72
2022/04/03 01:07:42;;;;;;;0.00;0.00;;;8.90;99.90;;;;;;5051344;28;20314;-71
2022/04/03 01:10:09;;;;;;;0.00;0.00;;;9.00;99.90;;;;;;5066150;28;20021;-72
2022/04/03 01:12:44;;;;;;;0.00;0.00;;;9.00;99.90;;;;;;5054131;28;20020;-72
2022/04/03 01:15:14;;;;;;;0.00;0.00;;;9.20;99.90;;;;;;5060910;28;20045;-71
2022/04/03 01:17:41;;;;;;;0.00;0.00;;;9.30;99.90;;;;;;5034443;28;20028;-71
2022/04/03 01:20:08;;;;;;;0.00;0.00;;;9.50;99.90;;;;;;5033508;28;20385;-72
2022/04/03 01:22:35;;;;;;;0.00;0.00;;;9.60;99.90;;;;;;5051142;28;20033;-72
2022/04/03 01:25:01;;;;;;;0.00;0.00;;;9.70;99.90;;;;;;5052156;28;20025;-72
2022/04/03 01:27:27;;;;;;;0.00;0.00;;;9.90;99.90;;;;;;5051448;28;20092;-71
2022/04/03 01:29:53;;;;;;;0.00;0.00;;;10.20;99.90;;;;;;5034277;28;20115;-72
2022/04/03 01:32:20;;;;;;;0.00;0.00;;;10.60;99.90;;;;;;5033868;28;20435;-72
2022/04/03 01:34:46;;;;;;;0.00;0.00;;;11.00;99.90;;;;;;5031503;28;20119;-71
2022/04/03 01:37:12;;;;;;;1.08;1.08;;;11.40;99.90;;;;;;5033686;28;20021;-72
2022/04/03 01:39:38;;;;;;;0.00;0.00;;;11.90;99.90;;;;;;5052655;28;20044;-71
2022/04/03 01:42:05;;;;;;;0.20;0.20;;;12.40;99.90;;;;;;5033890;28;20573;-72
2022/04/03 01:44:31;;;;;;;0.00;0.00;;;12.90;99.90;;;;;;5051285;28;20032;-72
2022/04/03 01:46:57;;;;;;;0.00;0.00;;;13.30;99.90;;;;;;5060963;28;20013;-72
2022/04/03 01:49:23;;;;;;;0.00;0.00;;;13.80;99.90;;;;;;5048154;28;20028;-73
2022/04/03 01:51:49;;;;;;;0.95;0.88;;;14.20;99.90;;;;;;5051989;28;20033;-72
2022/04/03 01:54:15;;;;;;;0.00;0.00;;;14.60;99.90;;;;;;5033128;28;20392;-73
2022/04/03 01:56:41;;;;;;;0.00;0.00;;;15.10;99.90;;;;;;5032928;28;20128;-72
2022/04/03 01:59:07;;;;;;;0.00;0.00;;;15.70;99.90;;;;;;5033978;28;20033;-72
2022/04/03 02:01:34;;;;;;;0.00;0.00;;;16.00;99.90;;;;;;5042505;28;20088;-73
2022/04/03 02:04:03;;;;;;;0.00;0.00;;;16.20;99.90;;;;;;5025314;28;20064;-72
2022/04/03 02:06:30;;;;;;;0.73;0.73;;;16.60;99.90;;;;;;5033527;28;20424;-72
2022/04/03 02:08:57;;;;;;;0.00;0.00;;;17.10;99.70;;;;;;5034042;28;20037;-73
2022/04/03 02:11:23;;;;;;;0.00;0.00;;;18.00;92.50;;;;;;5032868;28;20063;-73
2022/04/03 02:13:50;;;;;;;0.00;0.00;;;18.30;86.90;;;;;;5026084;28;20045;-73
2022/04/03 02:16:17;;;;;;;0.00;0.00;;;18.50;77.50;;;;;;5071296;28;20041;-72
2022/04/03 02:18:43;;;;;;;0.10;0.10;;;19.00;81.50;;;;;;5053796;28;20066;-73
2022/04/03 02:21:09;;;;;;;5.13;4.70;;;18.90;76.00;;;;;;5071805;28;20545;-73
2022/04/03 02:23:35;;;;;;;0.10;0.10;;;19.00;71.20;;;;;;5053728;28;20020;-73
2022/04/03 02:26:01;;;;;;;0.00;0.00;;;18.60;69.40;;;;;;5070854;28;20060;-73
2022/04/03 02:28:27;;;;;;;1.60;1.55;;;20.10;73.20;;;;;;5053625;28;20115;-73
2022/04/03 02:30:53;;;;;;;0.20;0.20;;;20.40;62.80;;;;;;5053376;28;20056;-71
2022/04/03 02:33:19;;;;;;;2.47;2.28;;;20.00;62.30;;;;;;5053194;28;20024;-72
2022/04/03 02:35:45;;;;;;;0.20;0.20;;;18.60;65.80;;;;;;5053049;28;20385;-72
2022/04/03 02:38:11;;;;;;;12.50;11.32;;;18.60;66.70;;;;;;5054471;28;20098;-71
2022/04/03 02:40:38;;;;;;;0.10;0.10;;;17.80;68.10;;;;;;5075248;28;20036;-71
2022/04/03 02:43:04;;;;;;;3.38;3.10;;;17.00;72.90;;;;;;5056413;28;20508;-71
2022/04/03 02:45:30;;;;;;;1.80;1.70;;;16.90;73.30;;;;;;5072063;28;20025;-72
2022/04/03 02:47:56;;;;;;;0.80;0.60;;;16.40;76.10;;;;;;5069699;28;20051;-72
2022/04/03 02:50:24;;;;;;;1.48;1.27;;;15.40;80.80;;;;;;5074397;28;20023;-72
2022/04/03 02:52:52;;;;;;;3.85;2.80;;;15.40;84.90;;;;;;5072078;28;20036;-72
2022/04/03 02:55:20;;;;;;;1.92;1.83;;;15.30;87.50;;;;;;5056731;28;20023;-73
2022/04/03 02:57:46;;;;;;;2.40;0.70;;;15.20;90.70;;;;;;5074373;28;20040;-72
2022/04/03 03:00:14;;;;;;;6.65;3.67;;;15.30;90.30;;;;;;5069564;28;20120;-72
2022/04/03 03:02:44;;;;;;;5.60;5.18;;;15.20;90.60;;;;;;5053203;28;20024;-73
2022/04/03 03:05:14;;;;;;;5.28;3.30;;;15.20;91.00;;;;;;5071130;28;20024;-72
2022/04/03 03:07:41;;;;;;;9.93;0.52;;;15.20;92.20;;;;;;5073652;28;20048;-72
2022/04/03 03:10:12;;;;;;;8.07;4.82;;;14.90;92.90;;;;;;5056285;28;20020;-72
2022/04/03 03:12:38;;;;;;;3.60;3.30;;;15.00;95.40;;;;;;5057388;28;20488;-71
2022/04/03 03:15:05;;;;;;;1.63;1.52;;;15.30;95.10;;;;;;5080435;28;20040;-72
2022/04/03 03:17:31;;;;;;;3.58;3.10;;;15.10;95.70;;;;;;5083527;28;20032;-71
2022/04/03 03:19:58;;;;;;;9.43;5.63;;;15.20;96.10;;;;;;5077019;28;20048;-72
2022/04/03 03:22:25;;;;;;;6.47;4.53;;;15.20;96.40;;;;;;5064028;28;20021;-72
2022/04/03 03:24:51;;;;;;;15.70;7.20;;;15.30;95.80;;;;;;5055178;28;20516;-72
2022/04/03 03:27:17;;;;;;;6.70;4.07;;;15.10;95.00;;;;;;5074705;28;20381;-71
2022/04/03 03:29:43;;;;;;;11.50;6.03;;;15.10;93.40;;;;;;5064297;28;20024;-71
2022/04/03 03:32:10;;;;;;;15.20;6.82;;;15.10;93.30;;;;;;5056358;28;20047;-71
2022/04/03 03:34:36;;;;;;;4.05;3.35;;;15.20;92.90;;;;;;5074063;28;20119;-71
2022/04/03 03:37:02;;;;;;;8.20;3.35;;;15.20;91.90;;;;;;5073255;28;20107;-71
2022/04/03 03:39:29;;;;;;;4.82;3.25;;;15.40;91.40;;;;;;5055641;28;20024;-73
2022/04/03 03:41:55;;;;;;;4.93;2.55;;;15.40;90.90;;;;;;5053176;28;20028;-72
2022/04/03 03:44:25;;;;;;;1.38;1.27;;;15.40;91.10;;;;;;5053591;28;20055;-71
2022/04/03 03:46:51;;;;;;;21.80;4.63;;;15.40;91.60;;;;;;5069910;28;20033;-71
2022/04/03 03:49:17;;;;;;;11.40;5.72;;;15.60;90.50;;;;;;5052101;28;20436;-71
2022/04/03 03:51:43;;;;;;;6.97;4.35;;;15.60;88.30;;;;;;5054026;28;20112;-72
2022/04/03 03:54:09;;;;;;;5.43;2.28;;;15.60;88.60;;;;;;5055297;28;20048;-71
2022/04/03 03:56:35;;;;;;;6.07;3.17;;;15.60;88.30;;;;;;5052167;28;20024;-71
2022/04/03 03:59:03;;;;;;;7.60;2.10;;;15.80;87.70;;;;;;5053412;28;20461;-70
2022/04/03 04:01:29;;;;;;;2.90;2.70;;;15.70;88.90;;;;;;5047336;28;20111;-71
2022/04/03 04:03:55;;;;;;;2.92;2.67;;;15.80;90.10;;;;;;5068457;28;20074;-72
2022/04/03 04:06:24;;;;;;;5.03;4.05;;;16.00;87.60;;;;;;5052012;28;20024;-72
2022/04/03 04:08:50;;;;;;;3.85;3.22;;;16.10;89.50;;;;;;5051601;28;20028;-73
2022/04/03 04:11:17;;;;;;;3.35;3.08;;;16.30;85.90;;;;;;5071752;28;20028;-73
2022/04/03 04:13:43;;;;;;;0.93;0.73;;;15.90;88.90;;;;;;5070374;28;20024;-71
2022/04/03 04:16:10;;;;;;;8.82;1.88;;;16.10;86.70;;;;;;5051761;28;20131;-72
2022/04/03 04:18:37;;;;;;;2.35;2.15;;;16.40;86.80;;;;;;5069756;28;20028;-72
2022/04/03 04:21:04;;;;;;;9.43;4.45;;;16.60;81.70;;;;;;5072327;28;20028;-71
2022/04/03 04:23:31;;;;;;;16.98;4.45;;;16.60;80.40;;;;;;5072892;28;20042;-72
2022/04/03 04:25:57;;;;;;;9.75;4.47;;;16.50;82.60;;;;;;5071925;28;20017;-72
2022/04/03 04:28:24;;;;;;;5.85;4.28;;;16.50;84.00;;;;;;5051308;28;20020;-71
2022/04/03 04:30:50;;;;;;;6.18;3.40;;;16.70;83.50;;;;;;5070833;28;20035;-71
2022/04/03 04:33:16;;;;;;;6.72;3.60;;;16.80;79.30;;;;;;5054591;28;20078;-71
2022/04/03 04:35:42;;;;;;;4.90;3.00;;;16.70;79.00;;;;;;5070050;28;20553;-72
2022/04/03 04:38:08;;;;;;;10.10;4.45;;;16.80;77.60;;;;;;5069728;28;20259;-72
2022/04/03 04:40:34;;;;;;;2.25;0.73;;;17.10;77.40;;;;;;5065861;28;20025;-72
2022/04/03 04:43:00;;;;;;;17.60;7.78;;;17.30;76.30;;;;;;5054855;28;20020;-71
2022/04/03 04:45:26;;;;;;;7.85;5.43;;;17.20;75.60;;;;;;5065915;28;20084;-72
2022/04/03 04:47:59;;;;;;;7.25;3.30;;;17.20;75.00;;;;;;5072040;28;20631;-71
2022/04/03 04:50:27;;;;;;;7.18;4.47;;;17.20;76.50;;;;;;5050340;28;20025;-72
2022/04/03 04:52:53;;;;;;;14.07;5.68;;;17.10;77.40;;;;;;5064788;28;20067;-72
2022/04/03 04:55:19;;;;;;;9.27;1.33;;;17.10;77.30;;;;;;5049195;28;20028;-71
2022/04/03 04:57:51;;;;;;;4.80;2.92;;;17.10;75.80;;;;;;5069122;28;20016;-71
2022/04/03 05:00:17;;;;;;;4.55;2.25;;;17.30;71.80;;;;;;5071015;28;20016;-71
2022/04/03 05:02:46;;;;;;;2.55;1.80;;;17.50;70.80;;;;;;5049378;28;20028;-71
2022/04/03 05:05:19;;;;;;;3.72;3.40;;;17.70;70.10;;;;;;5071058;28;20013;-71
2022/04/03 05:07:48;;;;;;;3.35;2.63;;;17.80;66.90;;;;;;5068316;28;20480;-73
2022/04/03 05:10:16;;;;;;;0.75;0.57;;;17.70;66.60;;;;;;5066463;28;20357;-72
2022/04/03 05:12:43;;;;;;;6.72;3.65;;;17.70;67.40;;;;;;5053341;28;20032;-71
2022/04/03 05:15:11;;;;;;;6.38;3.17;;;17.70;65.90;;;;;;5048075;28;20053;-71
2022/04/03 05:17:42;;;;;;;3.22;2.92;;;17.70;64.30;;;;;;5069474;28;20028;-73
2022/04/03 05:20:12;;;;;;;3.30;1.10;;;17.80;64.80;;;;;;5067093;28;20025;-73
2022/04/03 05:22:39;;;;;;;17.45;5.60;;;17.90;63.30;;;;;;5068421;28;20020;-73
2022/04/03 05:25:06;;;;;;;7.75;5.32;;;17.90;62.60;;;;;;5051132;28;20107;-72
2022/04/03 05:27:32;;;;;;;1.10;1.10;;;17.90;63.50;;;;;;5052290;28;20036;-72
2022/04/03 05:29:59;;;;;;;13.13;6.85;;;18.00;63.10;;;;;;5070816;28;20058;-73
2022/04/03 05:32:30;;;;;;;5.20;1.65;;;18.20;60.80;;;;;;5071338;28;20107;-73
2022/04/03 05:34:56;;;;;;;2.33;1.30;;;18.10;60.00;;;;;;5046282;28;20107;-71
2022/04/03 05:37:23;;;;;;;0.15;0.13;;;18.00;59.00;;;;;;5052450;28;20028;-73
2022/04/03 05:39:51;;;;;;;0.22;0.22;;;18.20;60.00;;;;;;5068225;28;20052;-71
2022/04/03 05:42:18;;;;;;;14.32;4.30;;;18.40;59.60;;;;;;5069284;28;20036;-70
2022/04/03 05:44:44;;;;;;;20.75;5.30;;;18.70;58.00;;;;;;5066022;28;20098;-71
2022/04/03 05:47:10;;;;;;;2.50;2.38;;;18.80;58.10;;;;;;5050231;28;20066;-71
2022/04/03 05:49:37;;;;;;;9.55;2.22;;;18.80;57.90;;;;;;5052607;28;20021;-72
2022/04/03 05:52:04;;;;;;;17.50;3.15;;;18.90;56.50;;;;;;5071390;28;20021;-70
2022/04/03 05:54:30;;;;;;;6.00;3.38;;;18.80;57.80;;;;;;5066391;28;20108;-72
2022/04/03 05:56:57;;;;;;;4.22;3.92;;;18.70;57.30;;;;;;5040860;28;20059;-71
2022/04/03 05:59:23;;;;;;;3.03;2.38;;;18.60;58.70;;;;;;5051669;28;20032;-70
2022/04/03 06:01:49;;;;;;;2.50;1.15;;;18.60;59.30;;;;;;5033810;28;20481;-71
2022/04/03 06:04:16;;;;;;;3.08;1.45;;;18.80;56.40;;;;;;5046712;28;20381;-73
2022/04/03 06:06:42;;;;;;;15.88;3.20;;;18.60;56.20;;;;;;5071567;28;20036;-71
2022/04/03 06:09:08;;;;;;;3.30;2.15;;;18.50;58.80;;;;;;5070612;28;20020;-72
2022/04/03 06:11:35;;;;;;;0.32;0.32;;;18.50;59.30;;;;;;5045415;28;20020;-71
2022/04/03 06:14:01;;;;;;;9.30;3.15;;;18.50;59.40;;;;;;5073718;28;20059;-72
2022/04/03 06:16:28;;;;;;;3.50;1.65;;;18.90;58.20;;;;;;5077659;28;20063;-72
2022/04/03 06:18:54;;;;;;;7.32;4.10;;;18.60;58.00;;;;;;5093431;28;20035;-73
2022/04/03 06:21:20;;;;;;;12.02;7.20;;;18.80;57.90;;;;;;5070187;28;20029;-74
2022/04/03 06:23:46;;;;;;;4.38;2.33;;;18.90;57.20;;;;;;5055050;28;20058;-73
2022/04/03 06:26:12;;;;;;;1.63;1.52;;;19.20;57.40;;;;;;5073921;28;20056;-72
2022/04/03 06:28:38;;;;;;;10.35;6.15;;;18.90;57.90;;;;;;5072298;28;20021;-71
2022/04/03 06:31:05;;;;;;;8.63;5.72;;;18.90;58.60;;;;;;5065580;28;20036;-72
2022/04/03 06:33:32;;;;;;;39.05;3.00;;;18.90;58.00;;;;;;5052186;28;20032;-73
2022/04/03 06:35:58;;;;;;;4.60;2.45;;;19.00;57.80;;;;;;5070927;28;20040;-73
2022/04/03 06:38:24;;;;;;;1.45;1.25;;;18.90;59.10;;;;;;5064995;28;20033;-73
2022/04/03 06:40:53;;;;;;;4.93;3.15;;;18.90;57.30;;;;;;5054775;28;20025;-72
2022/04/03 06:43:24;;;;;;;2.25;2.05;;;18.90;58.60;;;;;;5067855;28;20029;-72
2022/04/03 06:45:52;;;;;;;1.00;1.00;;;18.80;58.70;;;;;;5052881;28;20032;-71
2022/04/03 06:48:18;;;;;;;0.50;0.50;;;18.90;59.80;;;;;;5059069;28;20040;-72
2022/04/03 06:50:44;;;;;;;8.90;2.53;;;18.90;59.10;;;;;;5065749;28;20047;-73
2022/04/03 06:53:10;;;;;;;5.07;1.17;;;19.10;58.90;;;;;;5056356;28;20024;-71
2022/04/03 06:55:37;;;;;;;0.00;0.00;;;19.20;58.80;;;;;;5070643;28;20047;-72
2022/04/03 06:58:03;;;;;;;0.75;0.75;;;19.40;59.20;;;;;;5072251;28;20456;-73
2022/04/03 07:00:30;;;;;;;1.70;1.35;;;19.30;58.50;;;;;;5069014;28;20055;-72
2022/04/03 07:02:56;;;;;;;3.78;2.38;;;19.40;57.80;;;;;;5056181;28;20056;-72
2022/04/03 07:05:23;;;;;;;6.07;3.30;;;19.40;55.00;;;;;;5067301;28;20077;-70
2022/04/03 07:07:52;;;;;;;4.32;3.95;;;19.40;54.00;;;;;;5068246;28;20048;-70
2022/04/03 07:10:20;;;;;;;6.93;1.60;;;19.40;55.20;;;;;;5055966;28;20020;-70
2022/04/03 07:12:46;;;;;;;0.57;0.50;;;19.40;56.40;;;;;;5068566;28;20385;-70
2022/04/03 07:15:13;;;;;;;1.02;1.02;;;19.30;56.30;;;;;;5073274;28;20044;-72
2022/04/03 07:17:43;;;;;;;6.65;1.45;;;19.30;56.40;;;;;;5073991;28;20111;-71
2022/04/03 07:20:14;;;;;;;0.03;0.03;;;19.40;55.60;;;;;;5075774;28;20029;-70
2022/04/03 07:22:41;;;;;;;0.88;0.28;;;19.40;56.60;;;;;;5070492;28;20055;-71
2022/04/03 07:25:08;;;;;;;6.32;2.60;;;19.70;57.50;;;;;;5066918;28;20013;-71
2022/04/03 07:27:35;;;;;;;3.92;2.40;;;19.70;58.20;;;;;;5055607;28;20373;-69
2022/04/03 07:30:09;;;;;;;5.68;3.30;;;19.90;57.30;;;;;;5060394;28;20036;-70
2022/04/03 07:32:36;;;;;;;1.60;0.73;;;19.70;57.20;;;;;;5057777;28;20115;-70
2022/04/03 07:35:03;;;;;;;4.28;3.83;;;19.60;57.60;;;;;;5074844;28;20012;-71
2022/04/03 07:37:30;;;;;;;0.15;0.15;;;19.80;56.10;;;;;;5076270;28;20024;-71
2022/04/03 07:39:57;;;;;;;2.50;1.08;;;19.50;56.10;;;;;;5047220;28;20440;-72
2022/04/03 07:42:23;;;;;;;0.10;0.10;;;19.70;55.90;;;;;;5071771;28;20031;-69
2022/04/03 07:44:49;;;;;;;0.80;0.50;;;19.70;56.20;;;;;;5090422;28;20044;-71
2022/04/03 07:47:15;;;;;;;4.60;2.47;;;19.90;55.80;;;;;;5056996;28;20033;-71
2022/04/03 07:49:41;;;;;;;0.40;0.25;;;19.80;53.90;;;;;;5073373;28;20029;-71
2022/04/03 07:52:07;;;;;;;4.50;2.60;;;20.00;53.00;;;;;;5065423;28;20048;-71
2022/04/03 07:54:35;;;;;;;3.72;1.95;;;19.90;52.50;;;;;;5051827;28;20128;-70
2022/04/03 07:57:01;;;;;;;2.53;2.38;;;20.00;53.70;;;;;;5048704;28;20024;-71
2022/04/03 07:59:27;;;;;;;3.85;1.90;;;20.10;52.10;;;;;;5068962;28;20365;-72
2022/04/03 08:01:53;;;;;;;1.88;1.55;;;20.30;50.60;;;;;;5072975;28;20480;-69
2022/04/03 08:04:19;;;;;;;2.30;2.10;;;20.30;50.20;;;;;;5072210;28;20017;-71
2022/04/03 08:06:45;;;;;;;4.03;2.25;;;20.10;50.10;;;;;;5056815;28;20024;-72
2022/04/03 08:09:12;;;;;;;0.90;0.90;;;20.20;49.10;;;;;;5067354;28;20104;-72
2022/04/03 08:11:42;;;;;;;0.00;0.00;;;20.10;50.10;;;;;;5074227;28;20024;-72
2022/04/03 08:14:09;;;;;;;1.27;1.08;;;20.40;49.50;;;;;;5066959;28;20077;-74
2022/04/03 08:16:36;;;;;;;7.35;3.40;;;20.40;48.90;;;;;;5065416;28;20036;-72
2022/04/03 08:19:03;;;;;;;5.43;4.13;;;20.50;48.30;;;;;;5066047;28;20036;-73
2022/04/03 08:21:30;;;;;;;1.55;1.45;;;20.40;48.80;;;;;;5070110;28;20059;-71
2022/04/03 08:23:57;;;;;;;0.00;0.00;;;20.50;46.80;;;;;;5071866;28;20012;-71
2022/04/03 08:26:26;;;;;;;1.60;1.45;;;20.40;48.30;;;;;;5068596;28;20028;-72
2022/04/03 08:28:53;;;;;;;0.30;0.30;;;20.60;47.10;;;;;;5071645;28;20031;-71
2022/04/03 08:31:22;;;;;;;0.10;0.10;;;20.60;48.50;;;;;;5068770;28;20133;-72
2022/04/03 08:33:50;;;;;;;0.60;0.60;;;20.80;46.90;;;;;;5069621;28;20117;-71
2022/04/03 08:36:16;;;;;;;16.17;15.00;;;20.80;47.20;;;;;;5066428;28;20031;-71
2022/04/03 08:38:42;;;;;;;0.25;0.25;;;20.70;48.00;;;;;;5072769;28;20059;-71
2022/04/03 08:41:10;;;;;;;0.20;0.20;;;20.80;48.40;;;;;;5070501;28;20024;-71
2022/04/03 08:43:37;;;;;;;0.00;0.00;;;21.10;47.90;;;;;;5068555;28;20070;-72
2022/04/03 08:46:07;;;;;;;0.63;0.63;;;21.20;47.70;;;;;;5069656;28;20106;-71
2022/04/03 08:48:33;;;;;;;0.00;0.00;;;21.10;48.30;;;;;;5067695;28;20020;-71
2022/04/03 08:51:04;;;;;;;0.20;0.20;;;21.10;48.30;;;;;;5070964;28;20013;-71
2022/04/03 08:53:32;;;;;;;1.63;1.20;;;21.20;48.50;;;;;;5068815;28;20027;-70
2022/04/03 08:55:59;;;;;;;1.80;1.52;;;21.30;49.70;;;;;;5069171;28;20472;-71
2022/04/03 08:58:25;;;;;;;1.50;0.73;;;21.30;49.70;;;;;;5067604;28;20111;-70
2022/04/03 09:00:52;;;;;;;8.20;1.45;;;21.10;48.80;;;;;;5068452;28;20066;-72
2022/04/03 09:03:20;;;;;;;2.88;1.75;;;21.00;48.30;;;;;;5068860;28;20235;-73
2022/04/03 09:05:47;;;;;;;3.03;2.85;;;21.20;47.70;;;;;;5068831;28;20031;-70
2022/04/03 09:08:20;;;;;;;7.55;5.20;;;21.30;47.90;;;;;;5118539;27;20377;-70
2022/04/03 09:11:04;;;;;;;0.00;0.00;;;21.10;47.00;;;;;;5118679;28;20024;-69
2022/04/03 09:13:30;;;;;;;0.80;0.80;;;21.10;47.10;;;;;;5118903;28;20035;-70
2022/04/03 09:15:56;;;;;;;0.00;0.00;;;21.20;48.10;;;;;;5116755;28;20469;-70
2022/04/03 09:18:22;;;;;;;1.77;1.70;;;21.30;48.50;;;;;;5118721;28;20036;-72
2022/04/03 09:20:51;;;;;;;3.50;2.72;;;21.50;48.70;;;;;;5122081;28;20016;-72
2022/04/03 09:23:18;;;;;;;0.00;0.00;;;21.60;48.30;;;;;;5116474;28;20038;-72
2022/04/03 09:25:46;;;;;;;0.93;0.68;;;21.50;49.30;;;;;;5119782;28;20027;-72
2022/04/03 09:28:15;;;;;;;0.00;0.00;;;21.30;47.90;;;;;;5119788;28;20035;-71
2022/04/03 09:30:47;;;;;;;2.40;1.35;;;21.30;47.80;;;;;;5120449;28;20118;-74
2022/04/03 09:33:20;;;;;;;0.00;0.00;;;21.30;47.00;;;;;;5112541;28;20050;-74
2022/04/03 09:35:53;;;;;;;0.13;0.13;;;21.20;47.70;;;;;;5105512;28;20020;-70
2022/04/03 09:38:19;;;;;;;0.05;0.05;;;21.30;47.70;;;;;;5114551;28;20487;-69
2022/04/03 09:40:50;;;;;;;0.17;0.17;;;21.30;46.60;;;;;;5120505;28;20054;-70
2022/04/03 09:43:27;;;;;;;0.00;0.00;;;21.30;45.20;;;;;;5110633;28;20108;-70
2022/04/03 09:45:54;;;;;;;1.15;1.05;;;21.20;47.60;;;;;;5109028;28;20020;-71
2022/04/03 09:48:27;;;;;;;0.00;0.00;;;21.10;46.40;;;;;;5130471;27;20016;-70
2022/04/03 09:51:10;;;;;;;0.90;0.55;;;21.20;45.70;;;;;;5112238;27;20019;-70
2022/04/03 09:53:41;;;;;;;0.25;0.25;;;21.30;45.80;;;;;;5117439;28;20019;-70
2022/04/03 09:56:09;;;;;;;2.65;1.25;;;21.20;45.10;;;;;;5142534;27;20020;-70
2022/04/03 09:58:56;;;;;;;0.50;0.40;;;21.00;46.50;;;;;;5120734;27;20015;-70
2022/04/03 10:01:40;;;;;;;0.52;0.52;;;21.00;47.00;;;;;;5141249;27;20031;-71
2022/04/03 10:04:11;;;;;;;0.17;0.17;;;21.10;48.20;;;;;;5123173;27;20024;-70
2022/04/03 10:06:38;;;;;;;0.00;0.00;;;21.10;49.70;;;;;;5153950;27;20038;-70
2022/04/03 10:09:07;;;;;;;0.00;0.00;;;21.10;50.00;;;;;;5156791;27;20021;-70
2022/04/03 10:11:33;;;;;;;0.00;0.00;;;21.20;49.70;;;;;;5151063;27;20033;-70
2022/04/03 10:14:01;;;;;;;0.98;0.98;;;21.30;49.50;;;;;;5135970;27;20028;-69
2022/04/03 10:16:27;;;;;;;0.30;0.30;;;21.20;49.70;;;;;;5127093;27;20027;-70
2022/04/03 10:18:53;;;;;;;2.05;1.95;;;21.20;49.80;;;;;;5142637;27;20027;-70
2022/04/03 10:21:40;;;;;;;1.08;0.47;;;21.10;49.90;;;;;;5134883;27;20037;-70
2022/04/03 10:24:21;;;;;;;0.00;0.00;;;21.00;49.70;;;;;;5123937;27;20023;-71
2022/04/03 10:27:04;;;;;;;0.00;0.00;;;21.10;49.50;;;;;;5126111;27;20453;-71
2022/04/03 10:29:32;;;;;;;0.03;0.03;;;21.00;50.30;;;;;;5120952;27;20046;-71
2022/04/03 10:32:04;;;;;;;1.75;1.30;;;21.20;49.60;;;;;;5143931;27;20015;-70
2022/04/03 10:34:32;;;;;;;0.00;0.00;;;21.30;49.20;;;;;;5127906;27;20046;-69
2022/04/03 10:36:58;;;;;;;0.30;0.30;;;21.30;49.10;;;;;;5145669;27;20051;-71
2022/04/03 10:39:26;;;;;;;1.38;1.38;;;21.30;48.70;;;;;;5128858;27;20061;-70
2022/04/03 10:42:15;;;;;;;6.00;2.28;;;21.10;48.80;;;;;;5155401;27;20034;-69
2022/04/03 10:44:41;;;;;;;1.65;0.63;;;21.30;48.70;;;;;;5141130;27;20026;-69
2022/04/03 10:47:10;;;;;;;0.20;0.20;;;21.20;47.10;;;;;;5144796;27;20098;-69
2022/04/03 10:49:42;;;;;;;1.30;0.45;;;21.10;47.20;;;;;;5126505;27;20015;-69
2022/04/03 10:52:23;;;;;;;0.25;0.25;;;21.10;47.20;;;;;;5126914;27;20031;-71
2022/04/03 10:55:00;;;;;;;11.23;10.23;;;21.20;47.10;;;;;;5125476;27;20038;-70
2022/04/03 10:57:33;;;;;;;0.00;0.00;;;21.40;47.40;;;;;;5124357;27;20373;-70
2022/04/03 11:00:14;;;;;;;0.00;0.00;;;21.30;47.30;;;;;;5142759;27;20019;-69
2022/04/03 11:02:58;;;;;;;1.02;1.00;;;21.20;49.60;;;;;;5142410;27;20484;-73
2022/04/03 11:05:27;;;;;;;5.05;1.75;;;21.10;49.80;;;;;;5122363;27;20045;-70
2022/04/03 11:08:00;;;;;;;1.85;1.40;;;21.20;48.20;;;;;;5140608;27;20051;-69
2022/04/03 11:10:57;;;;;;;0.00;0.00;;;21.10;49.20;;;;;;5126989;27;20019;-70
2022/04/03 11:13:30;;;;;;;0.00;0.00;;;21.20;49.80;;;;;;5139056;27;20023;-69
2022/04/03 11:16:12;;;;;;;1.25;0.93;;;21.20;49.80;;;;;;5151605;27;20063;-69
2022/04/03 11:18:50;;;;;;;1.42;1.35;;;21.20;50.00;;;;;;5140619;27;20102;-69
2022/04/03 11:21:25;;;;;;;0.63;0.30;;;21.00;50.00;;;;;;5142700;27;20048;-69
2022/04/03 11:24:03;;;;;;;0.08;0.08;;;21.10;49.70;;;;;;5133189;27;20020;-70
2022/04/03 11:26:30;;;;;;;1.55;0.80;;;21.10;48.80;;;;;;5129341;27;20027;-70
2022/04/03 11:28:56;;;;;;;0.00;0.00;;;21.10;48.00;;;;;;5113611;27;20030;-70
2022/04/03 11:31:22;;;;;;;0.00;0.00;;;21.10;48.10;;;;;;5101453;27;20019;-70
2022/04/03 11:33:49;;;;;;;1.55;1.00;;;21.00;48.30;;;;;;5135929;27;20024;-71
2022/04/03 11:36:24;;;;;;;1.60;1.15;;;21.10;48.00;;;;;;5141819;27;20502;-70
2022/04/03 11:38:51;;;;;;;4.10;3.13;;;21.00;47.50;;;;;;5123894;27;20478;-70
2022/04/03 11:41:20;;;;;;;0.32;0.32;;;21.00;46.90;;;;;;5119155;27;20030;-71
2022/04/03 11:44:04;;;;;;;1.15;0.55;;;21.00;47.00;;;;;;5141351;27;20102;-70
2022/04/03 11:46:36;;;;;;;0.00;0.00;;;21.00;47.00;;;;;;5150901;27;20031;-71
2022/04/03 11:49:10;;;;;;;0.00;0.00;;;21.00;47.70;;;;;;5117758;27;20030;-70
2022/04/03 11:51:36;;;;;;;3.00;2.90;;;21.00;46.70;;;;;;5135355;27;20020;-70
2022/04/03 11:54:03;;;;;;;42.55;2.33;;;21.00;46.20;;;;;;5125705;27;20371;-70
2022/04/03 11:56:34;;;;;;;0.00;0.00;;;20.90;45.50;;;;;;5143473;27;20023;-70
2022/04/03 11:59:00;;;;;;;0.00;0.00;;;20.90;45.10;;;;;;5121525;27;20023;-70
2022/04/03 12:01:35;;;;;;;0.28;0.28;;;20.90;44.00;;;;;;5144599;27;20023;-70
2022/04/03 12:04:08;;;;;;;0.00;0.00;;;21.00;44.00;;;;;;5154581;27;20060;-70
2022/04/03 12:06:36;;;;;;;0.17;0.10;;;21.00;44.10;;;;;;5139934;27;20039;-70
2022/04/03 12:09:10;;;;;;;0.00;0.00;;;21.00;43.60;;;;;;5143164;27;20106;-71
2022/04/03 12:11:38;;;;;;;7.13;1.17;;;20.90;43.00;;;;;;5123010;27;20034;-69
2022/04/03 12:14:05;;;;;;;0.00;0.00;;;20.90;43.60;;;;;;5106984;27;20057;-70
2022/04/03 12:16:39;;;;;;;0.00;0.00;;;20.90;42.90;;;;;;5112132;27;20024;-72
2022/04/03 12:19:08;;;;;;;0.00;0.00;;;20.80;43.70;;;;;;5107635;27;20027;-71
2022/04/03 12:21:47;;;;;;;2.67;2.53;;;20.80;44.40;;;;;;5119946;27;20536;-71
2022/04/03 12:24:19;;;;;;;0.00;0.00;;;20.80;44.50;;;;;;5140326;27;20157;-71
2022/04/03 12:26:59;;;;;;;0.00;0.00;;;20.70;44.40;;;;;;5121900;27;20062;-70
2022/04/03 12:29:27;;;;;;;0.00;0.00;;;20.70;45.00;;;;;;5142862;27;20029;-70
2022/04/03 12:32:02;;;;;;;3.60;3.33;;;20.70;45.30;;;;;;5155212;27;20525;-70
2022/04/03 12:34:30;;;;;;;0.00;0.00;;;20.70;45.10;;;;;;5135549;27;20023;-70
2022/04/03 12:36:58;;;;;;;14.95;2.40;;;20.60;44.90;;;;;;5141468;27;20031;-70
2022/04/03 12:39:31;;;;;;;0.00;0.00;;;20.60;46.10;;;;;;5122944;27;20118;-72
2022/04/03 12:42:10;;;;;;;0.35;0.35;;;20.60;46.00;;;;;;5139042;27;20465;-70
2022/04/03 12:44:58;;;;;;;0.00;0.00;;;20.40;46.90;;;;;;5137696;27;20457;-70
2022/04/03 12:47:24;;;;;;;0.00;0.00;;;20.50;47.30;;;;;;5122465;27;20068;-71
2022/04/03 12:50:11;;;;;;;0.00;0.00;;;20.40;47.80;;;;;;5143545;27;20072;-71
2022/04/03 12:52:51;;;;;;;0.00;0.00;;;20.40;48.30;;;;;;5123190;27;20019;-71
2022/04/03 12:55:23;;;;;;;0.00;0.00;;;20.30;48.90;;;;;;5130626;27;20033;-71